createdAt,value
2018-04-16T00:01:50.453Z,62.00
2018-04-16T00:04:18.711Z,62.10
2018-04-16T00:06:46.950Z,62.40
2018-04-16T00:09:15.191Z,62.70
2018-04-16T00:11:43.781Z,63.40
2018-04-16T00:14:12.024Z,63.70
2018-04-16T00:16:40.262Z,63.90
2018-04-16T00:19:08.528Z,63.90
2018-04-16T00:21:36.767Z,63.20
2018-04-16T00:24:05.007Z,63.20
2018-04-16T00:26:33.271Z,63.20
2018-04-16T00:29:01.521Z,63.00
2018-04-16T00:31:35.862Z,62.80
2018-04-16T00:34:09.675Z,63.30
2018-04-16T00:36:43.635Z,63.40
2018-04-16T00:39:17.439Z,63.80
2018-04-16T00:41:51.473Z,63.60
2018-04-16T00:44:25.326Z,63.80
2018-04-16T00:46:59.513Z,64.40
2018-04-16T00:49:33.335Z,63.90
2018-04-16T00:52:07.155Z,65.30
2018-04-16T00:54:41.019Z,64.90
2018-04-16T00:57:14.859Z,64.80
2018-04-16T00:59:49.631Z,66.00
2018-04-16T01:02:23.865Z,66.00
2018-04-16T01:04:57.771Z,65.40
2018-04-16T01:07:31.587Z,65.90
2018-04-16T01:10:05.523Z,66.00
2018-04-16T01:12:39.495Z,66.00
2018-04-16T01:15:13.315Z,63.90
2018-04-16T01:17:47.387Z,66.00
2018-04-16T01:20:30.504Z,65.10
2018-04-16T01:23:04.299Z,66.00
2018-04-16T01:25:38.863Z,68.10
2018-04-16T01:28:12.815Z,68.00
2018-04-16T01:30:46.612Z,67.70
2018-04-16T01:33:20.903Z,68.80
2018-04-16T01:35:54.890Z,68.50
2018-04-16T01:38:28.738Z,69.50
2018-04-16T01:41:02.667Z,70.40
2018-04-16T01:43:36.987Z,70.10
2018-04-16T01:46:10.825Z,71.00
2018-04-16T01:48:44.836Z,69.80
2018-04-16T01:51:18.631Z,72.50
2018-04-16T01:53:53.414Z,69.20
2018-04-16T01:56:27.399Z,69.80
2018-04-16T01:59:01.401Z,72.10
2018-04-16T02:01:35.535Z,70.70
2018-04-16T02:04:09.658Z,71.80
2018-04-16T02:06:43.499Z,71.10
2018-04-16T02:09:18.135Z,73.30
2018-04-16T02:11:51.931Z,75.00
2018-04-16T02:14:25.895Z,73.40
2018-04-16T02:16:59.774Z,72.60
2018-04-16T02:19:34.952Z,72.20
2018-04-16T02:22:08.881Z,72.20
2018-04-16T02:24:42.846Z,73.10
2018-04-16T02:27:16.666Z,73.30
2018-04-16T02:29:50.487Z,73.70
2018-04-16T02:32:24.283Z,74.00
2018-04-16T02:34:58.413Z,74.40
2018-04-16T02:37:32.400Z,75.10
2018-04-16T02:40:06.686Z,75.70
2018-04-16T02:42:40.608Z,75.90
2018-04-16T02:45:14.607Z,76.70
2018-04-16T02:47:49.319Z,76.90
2018-04-16T02:50:23.699Z,76.50
2018-04-16T02:52:57.631Z,76.50
2018-04-16T02:55:31.507Z,75.60
2018-04-16T02:58:05.419Z,73.40
2018-04-16T03:00:39.291Z,73.00
2018-04-16T03:03:14.033Z,73.80
2018-04-16T03:05:48.087Z,72.90
2018-04-16T03:08:21.993Z,73.20
2018-04-16T03:10:55.963Z,72.50
2018-04-16T03:13:29.803Z,73.30
2018-04-16T03:16:03.803Z,72.40
2018-04-16T03:18:37.631Z,72.90
2018-04-16T03:21:11.840Z,72.90
2018-04-16T03:23:45.755Z,74.00
2018-04-16T03:26:19.607Z,73.80
2018-04-16T03:28:53.428Z,73.30
2018-04-16T03:31:27.359Z,72.70
2018-04-16T03:34:01.188Z,73.20
2018-04-16T03:36:35.605Z,74.20
2018-04-16T03:39:09.496Z,72.60
2018-04-16T03:41:43.368Z,73.40
2018-04-16T03:44:17.268Z,74.10
2018-04-16T03:46:51.200Z,73.90
2018-04-16T03:49:25.816Z,73.30
2018-04-16T03:52:14.043Z,73.40
2018-04-16T03:57:48.690Z,73.30
2018-04-16T04:00:16.925Z,73.30
2018-04-16T04:02:45.164Z,73.40
2018-04-16T04:05:13.774Z,72.80
2018-04-16T04:07:42.023Z,73.40
2018-04-16T04:10:10.264Z,73.20
2018-04-16T04:12:38.932Z,73.00
2018-04-16T04:15:07.177Z,75.90
2018-04-16T04:17:35.410Z,74.70
2018-04-16T04:20:03.691Z,75.30
2018-04-16T04:22:43.633Z,78.30
2018-04-16T04:25:23.560Z,77.80
2018-04-16T04:28:03.575Z,77.50
2018-04-16T04:30:37.523Z,81.80
2018-04-16T04:33:05.761Z,80.90
2018-04-16T04:35:34.002Z,82.80
2018-04-16T04:38:02.273Z,83.70
2018-04-16T04:40:30.567Z,85.00
2018-04-16T04:42:58.754Z,86.70
2018-04-16T04:45:27.783Z,85.70
2018-04-16T04:47:56.032Z,85.90
2018-04-16T04:50:24.274Z,83.90
2018-04-16T04:52:52.931Z,86.70
2018-04-16T04:55:21.176Z,90.00
2018-04-16T04:57:50.534Z,91.50
2018-04-16T05:00:18.790Z,89.90
2018-04-16T05:02:47.027Z,87.90
2018-04-16T05:05:16.627Z,87.90
2018-04-16T05:07:45.659Z,88.70
2018-04-16T05:10:13.899Z,88.50
2018-04-16T05:12:42.140Z,90.60
2018-04-16T05:15:10.719Z,91.30
2018-04-16T05:17:38.963Z,89.70
2018-04-16T05:20:07.207Z,90.40
2018-04-16T05:22:35.593Z,90.10
2018-04-16T05:25:04.016Z,91.60
2018-04-16T05:27:32.252Z,93.30
2018-04-16T05:30:00.510Z,91.50
2018-04-16T05:32:28.778Z,93.00
2018-04-16T05:34:57.136Z,92.10
2018-04-16T05:37:25.607Z,92.30
2018-04-16T05:39:53.983Z,93.00
2018-04-16T05:42:22.215Z,92.80
2018-04-16T05:44:50.482Z,91.90
2018-04-16T05:47:19.491Z,92.80
2018-04-16T05:49:47.729Z,92.70
2018-04-16T05:52:15.984Z,93.00
2018-04-16T05:54:44.220Z,93.70
2018-04-16T05:57:13.231Z,93.20
2018-04-16T05:59:41.865Z,93.10
2018-04-16T06:02:10.102Z,93.00
2018-04-16T06:04:38.339Z,92.10
2018-04-16T06:07:07.564Z,94.20
2018-04-16T06:09:35.792Z,93.90
2018-04-16T06:12:04.039Z,93.50
2018-04-16T06:14:35.527Z,93.70
2018-04-16T06:17:04.033Z,94.10
2018-04-16T06:19:32.475Z,93.50
2018-04-16T06:22:00.812Z,92.90
2018-04-16T06:24:29.052Z,93.20
2018-04-16T06:26:57.487Z,93.50
2018-04-16T06:29:25.862Z,93.70
2018-04-16T06:31:54.163Z,94.10
2018-04-16T06:34:22.390Z,93.80
2018-04-16T06:36:51.457Z,94.00
2018-04-16T06:39:19.657Z,94.00
2018-04-16T06:41:48.656Z,94.00
2018-04-16T06:44:17.376Z,94.00
2018-04-16T06:46:45.615Z,94.20
2018-04-16T06:49:13.854Z,93.80
2018-04-16T06:51:42.115Z,94.60
2018-04-16T06:54:10.351Z,94.30
2018-04-16T06:56:38.642Z,94.30
2018-04-16T06:59:06.930Z,94.30
2018-04-16T07:01:35.159Z,94.00
2018-04-16T07:04:03.443Z,94.00
2018-04-16T07:06:31.741Z,94.20
2018-04-16T07:09:00.277Z,93.40
2018-04-16T07:11:28.516Z,94.00
2018-04-16T07:13:56.780Z,93.80
2018-04-16T07:16:25.033Z,94.10
2018-04-16T07:18:54.038Z,94.40
2018-04-16T07:21:22.299Z,94.30
2018-04-16T07:23:50.544Z,93.80
2018-04-16T07:26:18.787Z,94.30
2018-04-16T07:28:47.293Z,94.30
2018-04-16T07:31:15.507Z,93.80
2018-04-16T07:33:43.746Z,94.20
2018-04-16T07:36:12.007Z,94.50
2018-04-16T07:38:40.248Z,94.20
2018-04-16T07:41:08.490Z,93.70
2018-04-16T07:43:36.752Z,93.30
2018-04-16T07:46:04.998Z,92.60
2018-04-16T07:48:33.321Z,92.20
2018-04-16T07:51:02.214Z,91.90
2018-04-16T07:53:30.446Z,91.20
2018-04-16T07:55:58.685Z,91.30
2018-04-16T07:58:26.967Z,91.00
2018-04-16T08:00:55.200Z,90.80
2018-04-16T08:03:23.448Z,90.40
2018-04-16T08:05:51.705Z,90.20
2018-04-16T08:08:19.944Z,90.40
2018-04-16T08:10:48.500Z,89.50
2018-04-16T08:13:17.171Z,88.90
2018-04-16T08:15:45.559Z,88.50
2018-04-16T08:18:13.793Z,87.50
2018-04-16T08:20:42.441Z,88.70
2018-04-16T08:23:10.675Z,85.30
2018-04-16T08:25:38.908Z,85.00
2018-04-16T08:28:07.173Z,84.30
2018-04-16T08:30:35.403Z,82.80
2018-04-16T08:33:03.911Z,82.10
2018-04-16T08:35:32.211Z,84.20
2018-04-16T08:38:00.460Z,83.50
2018-04-16T08:40:28.700Z,80.20
2018-04-16T08:42:57.723Z,78.70
2018-04-16T08:45:26.029Z,78.60
2018-04-16T08:47:54.262Z,76.70
2018-04-16T08:50:22.527Z,76.90
2018-04-16T08:52:51.532Z,75.30
2018-04-16T08:55:19.770Z,75.10
2018-04-16T08:57:48.167Z,73.80
2018-04-16T09:00:16.412Z,74.10
2018-04-16T09:02:44.644Z,73.90
2018-04-16T09:05:12.915Z,75.70
2018-04-16T09:07:41.166Z,76.30
2018-04-16T09:10:10.230Z,75.00
2018-04-16T09:12:38.891Z,75.00
2018-04-16T09:15:07.139Z,75.40
2018-04-16T09:17:35.386Z,72.60
2018-04-16T09:20:03.709Z,71.80
2018-04-16T09:22:31.948Z,70.60
2018-04-16T09:25:00.234Z,67.80
2018-04-16T09:27:29.304Z,66.30
2018-04-16T09:29:57.513Z,65.40
2018-04-16T09:32:26.504Z,68.70
2018-04-16T09:34:55.536Z,69.30
2018-04-16T09:37:23.776Z,69.20
2018-04-16T09:39:52.021Z,66.00
2018-04-16T09:42:20.356Z,63.60
2018-04-16T09:44:48.604Z,60.70
2018-04-16T09:47:16.850Z,63.40
2018-04-16T09:49:45.120Z,63.50
2018-04-16T09:52:13.355Z,65.70
2018-04-16T09:54:41.600Z,65.00
2018-04-16T09:57:09.863Z,64.00
2018-04-16T09:59:38.103Z,63.90
2018-04-16T10:02:12.140Z,59.80
2018-04-16T10:04:40.387Z,60.60
2018-04-16T10:07:08.720Z,60.50
2018-04-16T10:09:36.983Z,59.50
2018-04-16T10:12:06.734Z,62.20
2018-04-16T10:14:35.094Z,62.20
2018-04-16T10:17:04.132Z,58.60
2018-04-16T10:19:32.365Z,58.60
2018-04-16T10:22:00.616Z,57.20
2018-04-16T10:24:29.107Z,56.50
2018-04-16T10:26:58.856Z,56.10
2018-04-16T10:29:27.097Z,56.10
2018-04-16T10:31:56.131Z,55.40
2018-04-16T10:34:24.497Z,55.30
2018-04-16T10:36:52.731Z,55.90
2018-04-16T10:39:21.003Z,55.60
2018-04-16T10:41:49.244Z,56.20
2018-04-16T10:44:17.480Z,57.10
2018-04-16T10:46:47.131Z,54.30
2018-04-16T10:49:15.374Z,54.20
2018-04-16T10:51:43.635Z,53.20
2018-04-16T10:54:11.898Z,52.40
2018-04-16T10:56:40.139Z,51.40
2018-04-16T10:59:08.378Z,51.50
2018-04-16T11:01:37.408Z,47.30
2018-04-16T11:04:05.649Z,47.20
2018-04-16T11:06:33.882Z,47.30
2018-04-16T11:09:02.851Z,46.90
2018-04-16T11:11:31.093Z,47.60
2018-04-16T11:13:59.334Z,50.10
2018-04-16T11:16:28.548Z,47.40
2018-04-16T11:18:56.783Z,46.30
2018-04-16T11:21:25.020Z,51.60
2018-04-16T11:23:54.176Z,48.60
2018-04-16T11:26:22.443Z,48.50
2018-04-16T11:28:50.780Z,49.00
2018-04-16T11:31:20.107Z,42.10
2018-04-16T11:33:48.350Z,42.00
2018-04-16T11:36:16.591Z,41.80
2018-04-16T11:38:44.847Z,44.90
2018-04-16T11:41:13.140Z,43.60
2018-04-16T11:43:41.516Z,46.70
2018-04-16T11:46:09.754Z,48.60
2018-04-16T11:48:38.008Z,44.90
2018-04-16T11:51:06.256Z,43.30
2018-04-16T11:53:34.563Z,35.70
2018-04-16T11:56:03.595Z,35.30
2018-04-16T11:58:31.839Z,35.40
2018-04-16T12:01:00.447Z,37.80
2018-04-16T12:03:28.683Z,36.70
2018-04-16T12:05:57.696Z,37.60
2018-04-16T12:08:26.715Z,38.60
2018-04-16T12:10:54.955Z,38.50
2018-04-16T12:13:23.207Z,37.80
2018-04-16T12:15:51.511Z,36.70
2018-04-16T12:18:20.816Z,40.90
2018-04-16T12:20:49.831Z,37.20
2018-04-16T12:23:18.100Z,37.20
2018-04-16T12:25:46.427Z,35.20
2018-04-16T12:28:14.654Z,35.50
2018-04-16T12:30:42.939Z,34.10
2018-04-16T12:33:11.160Z,33.90
2018-04-16T12:35:39.395Z,32.30
2018-04-16T12:38:07.735Z,32.20
2018-04-16T12:40:36.299Z,34.40
2018-04-16T12:43:04.529Z,34.20
2018-04-16T12:45:32.779Z,35.40
2018-04-16T12:48:01.078Z,33.50
2018-04-16T12:50:29.254Z,39.30
2018-04-16T12:52:57.563Z,32.70
2018-04-16T12:55:25.795Z,35.70
2018-04-16T12:57:54.054Z,34.30
2018-04-16T13:00:22.471Z,30.80
2018-04-16T13:02:50.723Z,33.00
2018-04-16T13:05:19.735Z,31.90
2018-04-16T13:07:48.005Z,31.90
2018-04-16T13:10:16.244Z,30.80
2018-04-16T13:12:45.328Z,32.90
2018-04-16T13:15:13.546Z,32.90
2018-04-16T13:17:41.783Z,28.20
2018-04-16T13:20:10.602Z,27.70
2018-04-16T13:22:39.323Z,28.60
2018-04-16T13:25:07.569Z,30.80
2018-04-16T13:27:35.807Z,31.10
2018-04-16T13:30:04.071Z,30.00
2018-04-16T13:32:32.334Z,28.80
2018-04-16T13:35:00.569Z,30.40
2018-04-16T13:37:29.586Z,29.70
2018-04-16T13:39:57.826Z,29.70
2018-04-16T13:42:26.074Z,31.00
2018-04-16T13:44:54.386Z,32.60
2018-04-16T13:47:23.391Z,35.40
2018-04-16T13:49:52.397Z,33.30
2018-04-16T13:52:20.651Z,33.80
2018-04-16T13:54:48.889Z,31.60
2018-04-16T13:57:17.174Z,33.60
2018-04-16T13:59:45.435Z,34.10
2018-04-16T14:02:13.671Z,32.60
2018-04-16T14:04:42.079Z,29.90
2018-04-16T14:07:10.761Z,26.70
2018-04-16T14:09:38.996Z,31.10
2018-04-16T14:12:07.350Z,27.10
2018-04-16T14:14:35.596Z,27.30
2018-04-16T14:17:03.835Z,27.60
2018-04-16T14:19:32.147Z,26.00
2018-04-16T14:22:00.545Z,27.10
2018-04-16T14:24:28.781Z,27.40
2018-04-16T14:26:57.017Z,26.20
2018-04-16T14:29:25.867Z,26.70
2018-04-16T14:31:54.098Z,27.70
2018-04-16T14:34:22.326Z,27.50
2018-04-16T14:36:50.583Z,26.80
2018-04-16T14:39:18.828Z,26.10
2018-04-16T14:41:47.122Z,26.60
2018-04-16T14:44:15.331Z,27.20
2018-04-16T14:46:43.567Z,27.60
2018-04-16T14:49:12.567Z,28.80
2018-04-16T14:51:41.902Z,29.20
2018-04-16T14:54:10.196Z,29.10
2018-04-16T14:56:38.439Z,29.80
2018-04-16T14:59:06.854Z,31.70
2018-04-16T15:01:35.091Z,29.10
2018-04-16T15:04:03.323Z,30.50
2018-04-16T15:06:31.590Z,28.70
2018-04-16T15:08:59.828Z,26.80
2018-04-16T15:11:28.067Z,27.50
2018-04-16T15:13:57.454Z,28.70
2018-04-16T15:16:25.694Z,28.60
2018-04-16T15:18:53.927Z,28.30
2018-04-16T15:21:22.191Z,28.00
2018-04-16T15:23:51.464Z,27.20
2018-04-16T15:26:19.894Z,26.60
2018-04-16T15:28:48.904Z,27.50
2018-04-16T15:31:17.142Z,27.40
2018-04-16T15:33:45.408Z,25.30
2018-04-16T15:36:13.743Z,26.40
2018-04-16T15:38:42.102Z,26.80
2018-04-16T15:41:11.091Z,28.00
2018-04-16T15:43:40.619Z,27.40
2018-04-16T15:46:08.926Z,27.40
2018-04-16T15:48:37.159Z,27.90
2018-04-16T15:51:05.887Z,27.20
2018-04-16T15:53:34.104Z,27.80
2018-04-16T15:56:04.282Z,25.80
2018-04-16T15:58:33.083Z,25.80
2018-04-16T16:01:01.315Z,24.50
2018-04-16T16:03:29.559Z,26.80
2018-04-16T16:05:58.926Z,26.30
2018-04-16T16:08:27.152Z,26.30
2018-04-16T16:10:56.171Z,25.00
2018-04-16T16:13:24.446Z,25.00
2018-04-16T16:15:52.851Z,25.10
2018-04-16T16:18:21.091Z,26.60
2018-04-16T16:20:49.410Z,26.10
2018-04-16T16:23:17.644Z,26.60
2018-04-16T16:25:45.878Z,27.20
2018-04-16T16:28:14.134Z,28.30
2018-04-16T16:30:42.372Z,28.10
2018-04-16T16:33:10.616Z,26.80
2018-04-16T16:35:39.695Z,25.30
2018-04-16T16:38:07.933Z,25.10
2018-04-16T16:40:36.175Z,24.30
2018-04-16T16:43:05.330Z,24.50
2018-04-16T16:45:33.575Z,24.50
2018-04-16T16:48:01.991Z,26.00
2018-04-16T16:50:30.264Z,24.20
2018-04-16T16:52:58.491Z,24.40
2018-04-16T16:55:26.732Z,25.60
2018-04-16T16:57:55.000Z,26.40
2018-04-16T17:00:23.239Z,26.80
2018-04-16T17:02:51.475Z,27.80
2018-04-16T17:05:20.673Z,27.20
2018-04-16T17:07:48.898Z,27.40
2018-04-16T17:10:17.135Z,27.30
2018-04-16T17:12:45.403Z,27.30
2018-04-16T17:15:14.403Z,27.60
2018-04-16T17:17:43.403Z,27.40
2018-04-16T17:20:11.794Z,27.40
2018-04-16T17:22:40.057Z,27.60
2018-04-16T17:25:09.347Z,27.60
2018-04-16T17:27:38.438Z,28.30
2018-04-16T17:30:06.689Z,28.30
2018-04-16T17:32:34.919Z,28.30
2018-04-16T17:35:03.183Z,28.80
2018-04-16T17:37:32.195Z,29.70
2018-04-16T17:40:00.553Z,29.60
2018-04-16T17:42:29.586Z,30.00
2018-04-16T17:44:57.819Z,30.00
2018-04-16T17:47:26.059Z,30.60
2018-04-16T17:49:54.380Z,30.60
2018-04-16T17:52:23.392Z,31.30
2018-04-16T17:54:51.635Z,31.20
2018-04-16T17:57:19.915Z,31.30
2018-04-16T17:59:48.161Z,31.60
2018-04-16T18:02:16.407Z,31.70
2018-04-16T18:04:44.654Z,32.10
2018-04-16T18:07:13.667Z,32.70
2018-04-16T18:09:41.907Z,32.60
2018-04-16T18:12:10.440Z,32.70
2018-04-16T18:14:38.728Z,32.70
2018-04-16T18:17:06.928Z,33.60
2018-04-16T18:19:35.195Z,33.40
2018-04-16T18:22:03.436Z,34.00
2018-04-16T18:24:31.679Z,34.00
2018-04-16T18:27:01.001Z,34.60
2018-04-16T18:29:29.200Z,34.60
2018-04-16T18:31:57.444Z,35.40
2018-04-16T18:34:26.867Z,36.90
2018-04-16T18:36:55.111Z,36.80
2018-04-16T18:39:24.110Z,37.70
2018-04-16T18:41:53.135Z,38.10
2018-04-16T18:44:21.375Z,38.10
2018-04-16T18:46:49.620Z,37.90
2018-04-16T18:49:18.286Z,39.00
2018-04-16T18:51:46.523Z,39.00
2018-04-16T18:54:14.767Z,38.90
2018-04-16T18:56:43.255Z,39.10
2018-04-16T18:59:13.015Z,39.60
2018-04-16T19:01:41.259Z,39.60
2018-04-16T19:04:09.519Z,40.70
2018-04-16T19:06:37.755Z,40.30
2018-04-16T19:09:05.991Z,40.10
2018-04-16T19:11:34.255Z,40.10
2018-04-16T19:14:02.495Z,39.80
2018-04-16T19:16:30.735Z,40.90
2018-04-16T19:18:59.067Z,40.50
2018-04-16T19:21:32.855Z,40.50
2018-04-16T19:24:01.120Z,41.50
2018-04-16T19:26:29.360Z,41.00
2018-04-16T19:28:58.147Z,40.80
2018-04-16T19:31:27.218Z,41.10
2018-04-16T19:34:01.125Z,41.10
2018-04-16T19:36:29.769Z,40.70
2018-04-16T19:38:58.011Z,40.90
2018-04-16T19:41:26.256Z,40.50
2018-04-16T19:43:54.511Z,41.00
2018-04-16T19:46:22.808Z,41.00
2018-04-16T19:49:06.863Z,40.80
2018-04-16T19:51:35.390Z,41.30
2018-04-16T19:54:03.678Z,40.90
2018-04-16T19:56:38.010Z,41.00
2018-04-16T19:59:06.245Z,41.20
2018-04-16T20:01:34.766Z,41.90
2018-04-16T20:04:03.023Z,41.40
2018-04-16T20:06:31.312Z,41.60
2018-04-16T20:08:59.546Z,41.60
2018-04-16T20:11:28.579Z,42.50
2018-04-16T20:13:56.820Z,42.40
2018-04-16T20:16:25.827Z,42.90
2018-04-16T20:18:54.334Z,42.90
2018-04-16T20:21:22.675Z,42.70
2018-04-16T20:23:51.679Z,43.40
2018-04-16T20:26:20.707Z,43.20
2018-04-16T20:28:48.943Z,43.20
2018-04-16T20:31:17.691Z,43.50
2018-04-16T20:33:45.963Z,43.10
2018-04-16T20:36:14.194Z,43.40
2018-04-16T20:38:42.451Z,43.40
2018-04-16T20:41:10.902Z,43.50
2018-04-16T20:43:39.134Z,44.30
2018-04-16T20:46:07.379Z,43.80
2018-04-16T20:48:35.643Z,45.70
2018-04-16T20:51:03.883Z,45.30
2018-04-16T20:53:32.120Z,45.00
2018-04-16T20:56:00.379Z,46.00
2018-04-16T20:58:28.649Z,46.10
2018-04-16T21:00:56.888Z,47.50
2018-04-16T21:03:25.471Z,47.70
2018-04-16T21:05:53.707Z,47.70
2018-04-16T21:08:22.145Z,46.70
2018-04-16T21:10:50.403Z,48.30
2018-04-16T21:13:18.647Z,47.80
2018-04-16T21:15:47.647Z,47.30
2018-04-16T21:18:16.672Z,47.80
2018-04-16T21:20:44.914Z,47.70
2018-04-16T21:23:13.142Z,46.30
2018-04-16T21:25:41.535Z,46.50
2018-04-16T21:28:09.782Z,46.70
2018-04-16T21:30:38.011Z,48.40
2018-04-16T21:33:06.495Z,47.30
2018-04-16T21:35:34.731Z,47.10
2018-04-16T21:38:02.967Z,47.50
2018-04-16T21:40:31.231Z,47.10
2018-04-16T21:43:00.243Z,48.00
2018-04-16T21:45:28.475Z,48.00
2018-04-16T21:47:56.790Z,47.90
2018-04-16T21:50:25.035Z,48.80
2018-04-16T21:52:55.427Z,49.30
2018-04-16T21:55:23.695Z,50.10
2018-04-16T21:57:51.936Z,49.30
2018-04-16T22:00:20.944Z,49.30
2018-04-16T22:02:49.207Z,49.30
2018-04-16T22:05:17.455Z,49.90
2018-04-16T22:07:45.691Z,50.50
2018-04-16T22:10:14.003Z,50.50
2018-04-16T22:12:42.243Z,51.00
2018-04-16T22:15:10.545Z,49.10
2018-04-16T22:17:38.801Z,49.30
2018-04-16T22:20:07.039Z,49.90
2018-04-16T22:22:36.038Z,50.10
2018-04-16T22:25:05.063Z,48.90
2018-04-16T22:27:33.305Z,48.80
2018-04-16T22:30:01.540Z,48.90
2018-04-16T22:32:30.199Z,48.80
2018-04-16T22:34:58.835Z,49.80
2018-04-16T22:37:27.835Z,52.00
2018-04-16T22:39:56.868Z,52.00
2018-04-16T22:42:25.116Z,52.00
2018-04-16T22:44:53.354Z,52.10
2018-04-16T22:47:22.003Z,52.40
2018-04-16T22:49:50.308Z,51.60
2018-04-16T22:52:18.546Z,51.10
2018-04-16T22:54:47.144Z,53.20
2018-04-16T22:57:15.388Z,52.90
2018-04-16T22:59:43.619Z,54.60
2018-04-16T23:02:11.888Z,53.10
2018-04-16T23:04:40.127Z,52.00
2018-04-16T23:07:08.434Z,53.00
2018-04-16T23:09:36.683Z,54.70
2018-04-16T23:12:04.930Z,52.10
2018-04-16T23:14:33.259Z,53.10
2018-04-16T23:17:01.939Z,54.80
2018-04-16T23:19:30.174Z,55.10
2018-04-16T23:21:58.518Z,52.90
2018-04-16T23:24:26.767Z,56.20
2018-04-16T23:26:55.151Z,56.30
2018-04-16T23:29:23.388Z,58.10
2018-04-16T23:31:51.919Z,56.70
2018-04-16T23:34:20.154Z,56.10
2018-04-16T23:36:48.926Z,54.90
2018-04-16T23:39:17.668Z,56.30
2018-04-16T23:41:45.916Z,55.70
2018-04-16T23:44:14.151Z,55.10
2018-04-16T23:46:43.183Z,58.50
2018-04-16T23:49:11.429Z,58.50
2018-04-16T23:51:40.703Z,58.70
2018-04-16T23:54:08.965Z,59.70
2018-04-16T23:56:37.203Z,57.60
2018-04-16T23:59:06.215Z,57.80
